Time;durP1;ratioP1;P1;durP2;ratioP2;P2;SDS_P1;SDS_P2;PMS_P1;PMS_P2;Temp;Humidity;BMP_temperature;BMP_pressure;BME280_temperature;BME280_humidity;BME280_pressure;Samples;Min_cycle;Max_cycle;Signal;HPM_P1;HPM_P2
2023/06/27 00:02:20;;;;;;;27.80;5.10;;;;;;;-144.73;100.00;54354.34;5019170;28;20037;-69
2023/06/27 00:04:47;;;;;;;19.80;3.67;;;;;;;-144.73;100.00;54350.22;5001350;28;20125;-70
2023/06/27 00:07:12;;;;;;;26.27;4.32;;;;;;;-144.73;100.00;54407.69;5035275;28;20086;-70
2023/06/27 00:09:41;;;;;;;34.25;4.72;;;;;;;-144.73;100.00;54374.84;5038175;28;20045;-69
2023/06/27 00:12:07;;;;;;;18.63;3.17;;;;;;;-144.73;100.00;54350.22;5022233;28;20025;-70
2023/06/27 00:14:33;;;;;;;24.15;4.20;;;;;;;-144.73;100.00;54362.53;5021708;28;20033;-69
2023/06/27 00:17:00;;;;;;;21.48;4.25;;;;;;;-144.73;100.00;54329.72;5022853;28;20026;-69
2023/06/27 00:19:25;;;;;;;23.45;4.35;;;;;;;-144.73;100.00;54354.34;5036944;28;20060;-69
2023/06/27 00:21:51;;;;;;;18.08;4.18;;;;;;;-144.73;100.00;54348.19;5037809;28;20018;-69
2023/06/27 00:24:18;;;;;;;29.73;4.20;;;;;;;-144.73;100.00;54329.72;5022061;28;20054;-69
2023/06/27 00:26:43;;;;;;;22.27;3.95;;;;;;;-144.73;100.00;54362.53;5022601;28;20049;-70
2023/06/27 00:29:09;;;;;;;30.35;4.32;;;;;;;-144.73;100.00;54387.19;5022259;28;20033;-69
2023/06/27 00:31:34;;;;;;;33.30;4.65;;;;;;;-144.73;100.00;54346.13;5021332;28;20490;-69
2023/06/27 00:33:59;;;;;;;25.42;4.30;;;;;;;-144.73;100.00;54370.75;5032240;28;20018;-69
2023/06/27 00:36:25;;;;;;;30.02;4.47;;;;;;;-144.73;100.00;54346.13;5038323;28;20042;-69
2023/06/27 00:38:50;;;;;;;21.20;4.13;;;;;;;-144.73;100.00;54337.91;5039395;28;20026;-69
2023/06/27 00:41:16;;;;;;;21.27;3.90;;;;;;;-144.73;100.00;54411.81;5037282;28;20034;-69
2023/06/27 00:43:41;;;;;;;18.42;3.83;;;;;;;-144.73;100.00;54374.84;5033362;28;20022;-69
2023/06/27 00:46:08;;;;;;;17.75;3.95;;;;;;;-144.73;100.00;54358.44;5020222;28;20141;-70
2023/06/27 00:48:35;;;;;;;32.13;3.88;;;;;;;-144.73;100.00;54348.19;5038488;28;20022;-69
2023/06/27 00:51:00;;;;;;;26.17;5.28;;;;;;;-144.73;100.00;54362.53;5020818;28;20041;-69
2023/06/27 00:53:26;;;;;;;21.38;3.53;;;;;;;-144.73;100.00;54378.97;5021617;28;20033;-68
2023/06/27 00:55:52;;;;;;;26.40;4.45;;;;;;;-144.73;100.00;54407.69;5020054;28;20038;-69
2023/06/27 00:58:18;;;;;;;23.80;3.83;;;;;;;-144.73;100.00;54358.44;5020745;28;20109;-69
2023/06/27 01:00:44;;;;;;;21.60;4.25;;;;;;;-144.73;100.00;54370.75;5019819;28;20030;-69
2023/06/27 01:03:10;;;;;;;18.88;4.03;;;;;;;-144.73;100.00;54362.53;5020876;28;20045;-69
2023/06/27 01:05:35;;;;;;;27.50;4.32;;;;;;;-144.73;100.00;54378.97;5018881;28;20037;-70
2023/06/27 01:08:13;;;;;;;16.63;4.07;;;;;;;-144.73;100.00;54383.06;5019667;28;20014;-70
2023/06/27 01:10:48;;;;;;;20.80;3.70;;;;;;;-144.73;100.00;54356.38;5020558;28;20037;-71
2023/06/27 01:13:36;;;;;;;13.13;3.13;;;;;;;-144.73;100.00;54378.97;5019628;28;20026;-69
2023/06/27 01:16:02;;;;;;;23.85;4.15;;;;;;;-144.73;100.00;54327.66;5020664;28;20115;-69
2023/06/27 01:18:31;;;;;;;24.90;3.88;;;;;;;-144.73;100.00;54342.03;5021481;28;20026;-70
2023/06/27 01:20:59;;;;;;;30.75;4.43;;;;;;;-144.73;100.00;54383.06;5020428;28;20025;-69
2023/06/27 01:23:30;;;;;;;21.55;4.00;;;;;;;-144.73;100.00;54366.66;5021632;28;20032;-69
2023/06/27 01:26:09;;;;;;;24.73;4.15;;;;;;;-144.73;100.00;54391.28;5038020;28;20038;-69
2023/06/27 01:28:36;;;;;;;24.17;4.10;;;;;;;-144.73;100.00;54407.69;5021746;28;20022;-69
2023/06/27 01:31:03;;;;;;;22.50;3.65;;;;;;;-144.73;100.00;54378.97;5037746;28;20076;-70
2023/06/27 01:33:40;;;;;;;17.45;3.03;;;;;;;-144.73;100.00;54321.50;5037843;28;20022;-69
2023/06/27 01:36:26;;;;;;;20.67;3.65;;;;;;;-144.73;100.00;54354.34;5021960;28;20030;-68
2023/06/27 01:39:03;;;;;;;31.77;3.40;;;;;;;-144.73;100.00;54381.00;5022852;28;20128;-68
2023/06/27 01:41:32;;;;;;;21.00;3.28;;;;;;;-144.73;100.00;54383.06;5021706;28;20022;-69
2023/06/27 01:44:02;;;;;;;26.35;4.05;;;;;;;-144.73;100.00;54358.44;5022510;28;20028;-68
2023/06/27 01:46:28;;;;;;;19.42;3.40;;;;;;;-144.73;100.00;54383.06;5036397;28;20030;-69
2023/06/27 01:48:55;;;;;;;18.15;3.78;;;;;;;-144.73;100.00;54395.38;5006168;28;20029;-70
2023/06/27 01:51:21;;;;;;;18.27;4.88;;;;;;;-144.73;100.00;54407.69;5025112;28;20560;-69
2023/06/27 01:53:46;;;;;;;22.17;4.70;;;;;;;-144.73;100.00;54395.38;5009180;28;20025;-69
2023/06/27 01:56:12;;;;;;;27.42;3.63;;;;;;;-144.73;100.00;54329.72;5008425;28;20058;-68
2023/06/27 01:58:38;;;;;;;20.75;4.13;;;;;;;-144.73;100.00;54420.00;5008913;28;20061;-69
2023/06/27 02:01:04;;;;;;;28.88;4.47;;;;;;;-144.73;100.00;54372.81;5008835;28;20025;-70
2023/06/27 02:03:29;;;;;;;28.10;4.32;;;;;;;-144.73;100.00;54407.69;5008695;28;20064;-70
2023/06/27 02:05:55;;;;;;;22.73;4.57;;;;;;;-144.73;100.00;54420.00;5006113;28;20041;-69
2023/06/27 02:08:20;;;;;;;18.25;3.95;;;;;;;-144.73;100.00;54411.81;5008858;28;20022;-69
2023/06/27 02:10:46;;;;;;;26.80;4.47;;;;;;;-144.73;100.00;54358.44;5008008;28;20077;-69
2023/06/27 02:13:12;;;;;;;21.45;4.28;;;;;;;-144.73;100.00;54391.28;5012029;28;20054;-69
2023/06/27 02:15:37;;;;;;;26.40;4.00;;;;;;;-144.73;100.00;54374.84;5012148;28;20236;-70
2023/06/27 02:18:04;;;;;;;25.77;4.60;;;;;;;-144.73;100.00;54329.72;5016656;28;20079;-72
2023/06/27 02:20:30;;;;;;;28.95;4.95;;;;;;;-144.73;100.00;54370.75;5012820;28;20061;-71
2023/06/27 02:22:55;;;;;;;19.92;3.92;;;;;;;-144.73;100.00;54362.53;5012536;28;20088;-69
2023/06/27 02:25:21;;;;;;;26.10;4.40;;;;;;;-144.73;100.00;54395.38;5021916;28;20030;-70
2023/06/27 02:27:46;;;;;;;23.95;3.80;;;;;;;-144.73;100.00;54378.97;5012420;28;20026;-69
2023/06/27 02:30:12;;;;;;;21.73;3.92;;;;;;;-144.73;100.00;54358.44;5020745;28;20050;-71
2023/06/27 02:32:37;;;;;;;19.38;4.00;;;;;;;-144.73;100.00;54350.22;5029234;28;20406;-70
2023/06/27 02:35:02;;;;;;;23.58;4.68;;;;;;;-144.73;100.00;54374.84;5011962;28;20116;-69
2023/06/27 02:37:28;;;;;;;17.08;4.22;;;;;;;-144.73;100.00;54383.06;5012976;28;20018;-69
2023/06/27 02:39:54;;;;;;;22.48;4.40;;;;;;;-144.73;100.00;54389.22;5011834;28;20033;-69
2023/06/27 02:42:20;;;;;;;23.73;4.40;;;;;;;-144.73;100.00;54350.22;5012630;28;20050;-69
2023/06/27 02:44:45;;;;;;;19.98;4.80;;;;;;;-144.73;100.00;54374.84;5022816;28;20076;-69
2023/06/27 02:47:10;;;;;;;22.58;4.97;;;;;;;-144.73;100.00;54342.03;5013003;28;20149;-69
2023/06/27 02:49:36;;;;;;;24.05;4.32;;;;;;;-144.73;100.00;54411.81;5011880;28;20053;-70
2023/06/27 02:52:01;;;;;;;31.85;5.13;;;;;;;-144.73;100.00;54409.75;5012294;28;20030;-69
2023/06/27 02:54:27;;;;;;;24.67;4.18;;;;;;;-144.73;100.00;54383.06;5012251;28;20021;-70
2023/06/27 02:56:52;;;;;;;16.08;3.90;;;;;;;-144.73;100.00;54327.66;5012297;28;20026;-70
2023/06/27 02:59:18;;;;;;;22.80;4.03;;;;;;;-144.73;100.00;54383.06;5012407;28;20033;-69
2023/06/27 03:01:43;;;;;;;17.55;4.15;;;;;;;-144.73;100.00;54387.19;5012051;28;20018;-70
2023/06/27 03:04:10;;;;;;;20.60;4.03;;;;;;;-144.73;100.00;54360.50;5011861;28;20028;-70
2023/06/27 03:06:35;;;;;;;23.15;4.47;;;;;;;-144.73;100.00;54415.91;5012235;28;20128;-70
2023/06/27 03:09:01;;;;;;;22.02;4.18;;;;;;;-144.73;100.00;54383.06;5017730;28;20073;-69
2023/06/27 03:11:26;;;;;;;21.77;4.15;;;;;;;-144.73;100.00;54376.91;5011314;28;20037;-69
2023/06/27 03:13:51;;;;;;;21.33;4.07;;;;;;;-144.73;100.00;54407.69;5026957;28;20045;-70
2023/06/27 03:16:17;;;;;;;21.73;3.58;;;;;;;-144.73;100.00;54354.34;5011838;28;20030;-70
2023/06/27 03:18:42;;;;;;;18.88;3.50;;;;;;;-144.73;100.00;54374.84;5012414;28;20102;-69
2023/06/27 03:21:08;;;;;;;17.10;3.70;;;;;;;-144.73;100.00;54391.28;5011179;28;20040;-70
2023/06/27 03:23:33;;;;;;;20.77;4.20;;;;;;;-144.73;100.00;54354.34;5019843;28;20030;-70
2023/06/27 03:25:58;;;;;;;23.35;3.58;;;;;;;-144.73;100.00;54383.06;5019754;28;20042;-70
2023/06/27 03:28:24;;;;;;;14.85;3.20;;;;;;;-144.73;100.00;54415.91;5011769;28;20034;-70
2023/06/27 03:30:49;;;;;;;10.82;3.10;;;;;;;-144.73;100.00;54383.06;5012560;28;20034;-69
2023/06/27 03:33:14;;;;;;;27.55;3.67;;;;;;;-144.73;100.00;54399.50;5018299;28;20032;-70
2023/06/27 03:35:40;;;;;;;19.52;2.78;;;;;;;-144.73;100.00;54368.69;5011198;28;20055;-69
2023/06/27 03:38:05;;;;;;;14.80;3.65;;;;;;;-144.73;100.00;54428.22;5011513;28;20033;-70
2023/06/27 03:40:30;;;;;;;13.32;3.30;;;;;;;-144.73;100.00;54407.69;5021398;28;20030;-69
2023/06/27 03:42:56;;;;;;;18.33;3.22;;;;;;;-144.73;100.00;54407.69;5008863;28;20117;-70
2023/06/27 03:45:22;;;;;;;9.93;2.92;;;;;;;-144.73;100.00;54383.06;5011357;28;20041;-70
2023/06/27 03:47:47;;;;;;;22.10;2.97;;;;;;;-144.73;100.00;54370.75;5011464;28;20033;-70
2023/06/27 03:50:13;;;;;;;13.77;2.80;;;;;;;-144.73;100.00;54428.22;5020126;28;20053;-69
2023/06/27 03:52:38;;;;;;;15.20;3.22;;;;;;;-144.73;100.00;54378.97;5011387;28;20030;-69
2023/06/27 03:55:05;;;;;;;17.65;3.20;;;;;;;-144.73;100.00;54376.91;5010452;28;20037;-70
2023/06/27 03:57:30;;;;;;;14.30;3.75;;;;;;;-144.73;100.00;54413.84;5008118;28;20043;-70
2023/06/27 03:59:55;;;;;;;10.23;2.92;;;;;;;-144.73;100.00;54387.19;5009673;28;20116;-71
2023/06/27 04:02:20;;;;;;;16.90;3.60;;;;;;;-144.73;100.00;54422.06;5011377;28;20032;-70
2023/06/27 04:04:46;;;;;;;14.15;2.85;;;;;;;-144.73;100.00;54378.97;5022726;28;20038;-70
2023/06/27 04:07:11;;;;;;;19.73;4.15;;;;;;;-144.73;100.00;54399.50;5011585;28;20034;-70
2023/06/27 04:09:37;;;;;;;11.77;2.92;;;;;;;-144.73;100.00;54358.44;5010398;28;20042;-71
2023/06/27 04:12:03;;;;;;;11.75;2.85;;;;;;;-144.73;100.00;54391.28;5018701;28;20030;-71
2023/06/27 04:14:29;;;;;;;14.13;3.33;;;;;;;-144.73;100.00;54352.28;5010457;28;20028;-71
2023/06/27 04:16:55;;;;;;;12.45;2.60;;;;;;;-144.73;100.00;54399.50;5024267;28;20025;-71
2023/06/27 04:19:20;;;;;;;14.73;3.05;;;;;;;-144.73;100.00;54376.91;5006812;28;20372;-70
2023/06/27 04:21:45;;;;;;;14.02;3.78;;;;;;;-144.73;100.00;54378.97;5024307;28;20021;-71
2023/06/27 04:24:11;;;;;;;13.05;2.97;;;;;;;-144.73;100.00;54391.28;5026821;28;20030;-70
2023/06/27 04:26:36;;;;;;;11.35;2.95;;;;;;;-144.73;100.00;54407.69;5006845;28;20038;-70
2023/06/27 04:29:02;;;;;;;13.85;4.07;;;;;;;-144.73;100.00;54378.97;5024095;28;20121;-70
2023/06/27 04:31:27;;;;;;;13.52;2.80;;;;;;;-144.73;100.00;54424.13;5009840;28;20030;-71
2023/06/27 04:33:55;;;;;;;11.27;2.65;;;;;;;-144.73;100.00;54407.69;5010575;28;20030;-71
2023/06/27 04:36:25;;;;;;;14.68;2.97;;;;;;;-144.73;100.00;54409.75;5009267;28;20026;-71
2023/06/27 04:38:50;;;;;;;13.15;2.85;;;;;;;-144.73;100.00;54411.81;5010702;28;20088;-70
2023/06/27 04:41:16;;;;;;;10.60;3.17;;;;;;;-144.73;100.00;54366.66;5025730;28;20021;-70
2023/06/27 04:43:41;;;;;;;9.15;2.45;;;;;;;-144.73;100.00;54407.69;5013681;28;20033;-71
2023/06/27 04:46:07;;;;;;;13.27;2.55;;;;;;;-144.73;100.00;54358.44;5009742;28;20387;-71
2023/06/27 04:48:32;;;;;;;12.40;3.10;;;;;;;-144.73;100.00;54391.28;5010987;28;20397;-69
2023/06/27 04:50:58;;;;;;;18.98;3.20;;;;;;;-144.73;100.00;54434.38;5009889;28;20049;-71
2023/06/27 04:53:24;;;;;;;16.60;3.25;;;;;;;-144.73;100.00;54383.06;5011758;28;20032;-70
2023/06/27 04:55:51;;;;;;;10.20;2.67;;;;;;;-144.73;100.00;54395.38;5009933;28;20058;-71
2023/06/27 04:58:18;;;;;;;17.80;4.40;;;;;;;-144.73;100.00;54399.50;5010255;28;20084;-70
2023/06/27 05:00:44;;;;;;;8.63;2.55;;;;;;;-144.73;100.00;54368.69;5009506;28;20034;-70
2023/06/27 05:03:10;;;;;;;11.43;2.58;;;;;;;-144.73;100.00;54356.38;5008104;28;20117;-70
2023/06/27 05:05:36;;;;;;;11.35;2.60;;;;;;;-144.73;100.00;54378.97;5004806;28;20040;-70
2023/06/27 05:08:03;;;;;;;22.13;3.78;;;;;;;-144.73;100.00;54395.38;5010158;28;20445;-74
2023/06/27 05:10:32;;;;;;;9.70;2.97;;;;;;;-144.73;100.00;54378.97;5019096;28;20034;-74
2023/06/27 05:12:58;;;;;;;9.80;2.70;;;;;;;-144.73;100.00;54376.91;5009805;28;20029;-75
2023/06/27 05:15:24;;;;;;;7.35;1.83;;;;;;;-144.73;100.00;54391.28;5009045;28;20113;-76
2023/06/27 05:17:54;;;;;;;9.40;1.67;;;;;;;-144.73;100.00;54432.31;5013644;28;20109;-77
2023/06/27 05:20:20;;;;;;;8.25;2.38;;;;;;;-144.73;100.00;54407.69;5005133;28;20049;-78
2023/06/27 05:22:46;;;;;;;9.65;2.35;;;;;;;-144.73;100.00;54389.22;5005247;28;20021;-78
2023/06/27 05:25:11;;;;;;;6.50;1.88;;;;;;;-144.73;100.00;54407.69;5008552;28;20529;-77
2023/06/27 05:27:37;;;;;;;9.32;2.35;;;;;;;-144.73;100.00;54407.69;5008516;28;20018;-77
2023/06/27 05:30:03;;;;;;;7.25;2.40;;;;;;;-144.73;100.00;54383.06;5007529;28;20049;-77
2023/06/27 05:32:28;;;;;;;6.95;2.65;;;;;;;-144.73;100.00;54407.69;5009132;28;20030;-76
2023/06/27 05:34:54;;;;;;;6.68;2.08;;;;;;;-144.73;100.00;54387.19;5008760;28;20033;-76
2023/06/27 05:37:19;;;;;;;29.30;2.95;;;;;;;-144.73;100.00;54395.38;5009629;28;20018;-76
2023/06/27 05:39:45;;;;;;;16.17;3.63;;;;;;;-144.73;100.00;54415.91;5009619;28;20038;-77
2023/06/27 05:42:10;;;;;;;22.00;4.50;;;;;;;-144.73;100.00;54444.66;5010225;28;20101;-74
2023/06/27 05:44:36;;;;;;;11.25;4.07;;;;;;;-144.73;100.00;54420.00;5009602;28;20034;-74
2023/06/27 05:47:01;;;;;;;17.92;4.85;;;;;;;-144.73;100.00;54378.97;5009565;28;20046;-74
2023/06/27 05:49:26;;;;;;;16.73;5.88;;;;;;;-144.73;100.00;54391.28;5009546;28;20018;-73
2023/06/27 05:51:52;;;;;;;17.90;7.15;;;;;;;-144.73;100.00;54424.13;5009676;28;20037;-72
2023/06/27 05:54:17;;;;;;;17.73;5.82;;;;;;;-144.73;100.00;54378.97;5009043;28;20032;-74
2023/06/27 05:56:43;;;;;;;23.10;6.25;;;;;;;-144.73;100.00;54417.97;5019057;28;20032;-78
2023/06/27 05:59:08;;;;;;;18.40;5.93;;;;;;;-144.73;100.00;54391.28;5006194;28;20034;-78
2023/06/27 06:01:35;;;;;;;17.88;6.15;;;;;;;-144.73;100.00;54391.28;5004725;28;20026;-79
2023/06/27 06:04:01;;;;;;;15.73;5.88;;;;;;;-144.73;100.00;54374.84;5010772;28;20029;-79
2023/06/27 06:06:27;;;;;;;21.70;6.00;;;;;;;-144.73;100.00;54407.69;5010698;28;20386;-79
2023/06/27 06:08:52;;;;;;;17.98;5.15;;;;;;;-144.73;100.00;54378.97;5011536;28;20041;-80
2023/06/27 06:11:18;;;;;;;14.63;5.00;;;;;;;-144.73;100.00;54374.84;5001561;28;20053;-78
2023/06/27 06:13:43;;;;;;;25.80;5.88;;;;;;;-144.73;100.00;54438.50;5006761;28;20030;-79
2023/06/27 06:16:09;;;;;;;15.55;4.57;;;;;;;-144.73;100.00;54407.69;5008171;28;20087;-78
2023/06/27 06:18:34;;;;;;;12.38;3.55;;;;;;;-144.73;100.00;54378.97;5009994;28;20022;-77
2023/06/27 06:21:00;;;;;;;8.23;3.10;;;;;;;-144.73;100.00;54432.31;5008076;28;20097;-76
2023/06/27 06:23:25;;;;;;;9.40;3.10;;;;;;;-144.73;100.00;54452.84;5008740;28;20026;-75
2023/06/27 06:25:50;;;;;;;17.38;3.38;;;;;;;-144.73;100.00;54424.13;5008481;28;20037;-74
2023/06/27 06:28:16;;;;;;;18.10;3.55;;;;;;;-144.73;100.00;54417.97;5017176;28;20030;-74
2023/06/27 06:30:41;;;;;;;15.77;3.70;;;;;;;-144.73;100.00;54374.84;5025086;28;20041;-73
2023/06/27 06:33:06;;;;;;;14.88;3.42;;;;;;;-144.73;100.00;54407.69;5009408;28;20028;-73
2023/06/27 06:35:32;;;;;;;20.00;4.55;;;;;;;-144.73;100.00;54387.19;5008499;28;20395;-72
2023/06/27 06:37:57;;;;;;;16.77;4.35;;;;;;;-144.73;100.00;54366.66;5022547;28;20034;-72
2023/06/27 06:40:24;;;;;;;15.95;3.15;;;;;;;-144.73;100.00;54411.81;5008463;28;20030;-72
2023/06/27 06:42:52;;;;;;;11.52;2.97;;;;;;;-144.73;100.00;54420.00;5009675;28;20068;-72
2023/06/27 06:45:18;;;;;;;14.05;3.45;;;;;;;-144.73;100.00;54415.91;5017355;28;20030;-72
2023/06/27 06:47:43;;;;;;;12.50;2.83;;;;;;;-144.73;100.00;54391.28;5019891;28;20033;-72
2023/06/27 06:50:15;;;;;;;10.75;3.08;;;;;;;-144.73;100.00;54407.69;5009382;28;20045;-72
2023/06/27 06:52:44;;;;;;;10.52;3.20;;;;;;;-144.73;100.00;54411.81;5026312;28;20026;-72
2023/06/27 06:55:09;;;;;;;11.70;2.53;;;;;;;-144.73;100.00;54407.69;5013860;28;20041;-71
2023/06/27 06:57:37;;;;;;;11.95;2.63;;;;;;;-144.73;100.00;54413.84;5026485;28;20022;-71
2023/06/27 07:00:21;;;;;;;9.68;2.33;;;;;;;-144.73;100.00;54366.66;5028992;28;20030;-72
2023/06/27 07:02:47;;;;;;;20.33;2.78;;;;;;;-144.73;100.00;54385.13;5014356;28;20022;-71
2023/06/27 07:05:12;;;;;;;12.43;2.72;;;;;;;-144.73;100.00;54391.28;5024030;28;20103;-73
2023/06/27 07:07:41;;;;;;;12.20;2.38;;;;;;;-144.73;100.00;54366.66;5029230;28;20046;-72
2023/06/27 07:10:06;;;;;;;12.10;3.20;;;;;;;-144.73;100.00;54399.50;5029272;28;20034;-71
2023/06/27 07:12:32;;;;;;;19.67;2.50;;;;;;;-144.73;100.00;54358.44;5013630;28;20056;-72
2023/06/27 07:14:57;;;;;;;12.30;2.65;;;;;;;-144.73;100.00;54407.69;5013134;28;20033;-71
2023/06/27 07:17:23;;;;;;;9.68;2.05;;;;;;;-144.73;100.00;54358.44;5021991;28;20030;-72
2023/06/27 07:19:48;;;;;;;12.88;2.58;;;;;;;-144.73;100.00;54395.38;5018739;28;20026;-72
2023/06/27 07:22:21;;;;;;;16.23;2.42;;;;;;;-144.73;100.00;54407.69;5013141;28;20030;-73
2023/06/27 07:24:46;;;;;;;14.90;2.80;;;;;;;-144.73;100.00;54374.84;5012090;28;20034;-71
2023/06/27 07:27:12;;;;;;;19.55;3.33;;;;;;;-144.73;100.00;54383.06;5029675;28;20049;-70
2023/06/27 07:29:37;;;;;;;13.35;2.80;;;;;;;-144.73;100.00;54407.69;5028660;28;20030;-70
2023/06/27 07:32:03;;;;;;;8.15;2.50;;;;;;;-144.73;100.00;54407.69;5027170;28;20033;-70
2023/06/27 07:34:28;;;;;;;18.38;3.30;;;;;;;-144.73;100.00;54383.06;5025947;28;20022;-69
2023/06/27 07:36:53;;;;;;;14.18;3.30;;;;;;;-144.73;100.00;54370.75;5027963;28;20066;-70
2023/06/27 07:39:19;;;;;;;28.30;3.17;;;;;;;-144.73;100.00;54391.28;5028179;28;20032;-72
2023/06/27 07:41:44;;;;;;;23.35;3.35;;;;;;;-144.73;100.00;54378.97;5025188;28;20018;-73
2023/06/27 07:44:10;;;;;;;11.27;3.35;;;;;;;-144.73;100.00;54432.31;5003373;28;20104;-73
2023/06/27 07:46:35;;;;;;;22.45;3.75;;;;;;;-144.73;100.00;54395.38;5021261;28;20041;-72
2023/06/27 07:49:01;;;;;;;14.38;3.95;;;;;;;-144.73;100.00;54378.97;5010359;28;20021;-70
2023/06/27 07:51:27;;;;;;;21.10;4.25;;;;;;;-144.73;100.00;54407.69;5011675;28;20041;-70
2023/06/27 07:53:52;;;;;;;30.40;5.50;;;;;;;-144.73;100.00;54395.38;5029085;28;20022;-71
2023/06/27 07:56:19;;;;;;;32.50;7.38;;;;;;;-144.73;100.00;54407.69;5011678;28;20033;-71
2023/06/27 07:58:44;;;;;;;16.63;4.25;;;;;;;-144.73;100.00;54411.81;5014287;28;20168;-71
2023/06/27 08:01:11;;;;;;;10.70;3.13;;;;;;;-144.73;100.00;54383.06;5012101;28;20057;-71
2023/06/27 08:03:36;;;;;;;11.88;2.75;;;;;;;-144.73;100.00;54440.53;5012478;28;20018;-72
2023/06/27 08:06:05;;;;;;;10.98;3.33;;;;;;;-144.73;100.00;54387.19;4999931;28;20034;-76
2023/06/27 08:08:30;;;;;;;8.43;2.67;;;;;;;-144.73;100.00;54399.50;5007640;28;20038;-76
2023/06/27 08:10:56;;;;;;;8.82;2.42;;;;;;;-144.73;100.00;54395.38;5008750;28;20517;-77
2023/06/27 08:13:22;;;;;;;9.93;2.50;;;;;;;-144.73;100.00;54407.69;5010200;28;20108;-77
2023/06/27 08:15:48;;;;;;;10.20;2.05;;;;;;;-144.73;100.00;54387.19;5010068;28;20129;-77
2023/06/27 08:18:13;;;;;;;10.57;2.35;;;;;;;-144.73;100.00;54415.91;5010426;28;20057;-76
2023/06/27 08:20:39;;;;;;;19.15;2.40;;;;;;;-144.73;100.00;54366.66;5010519;28;20026;-74
2023/06/27 08:23:04;;;;;;;14.48;3.85;;;;;;;-144.73;100.00;54452.84;5010524;28;20119;-73
2023/06/27 08:25:29;;;;;;;15.95;3.58;;;;;;;-144.73;100.00;54395.38;5009039;28;20554;-73
2023/06/27 08:27:55;;;;;;;17.38;3.25;;;;;;;-144.73;100.00;54407.69;5021806;28;20386;-72
2023/06/27 08:30:20;;;;;;;13.10;3.17;;;;;;;-144.73;100.00;54417.97;5009032;28;20034;-73
2023/06/27 08:32:45;;;;;;;10.85;2.50;;;;;;;-144.73;100.00;54385.13;5009603;28;20018;-76
2023/06/27 08:35:11;;;;;;;11.95;3.20;;;;;;;-144.73;100.00;54395.38;5009641;28;20026;-77
2023/06/27 08:37:37;;;;;;;11.63;2.67;;;;;;;-144.73;100.00;54387.19;5011053;28;20017;-77
2023/06/27 08:40:03;;;;;;;9.98;2.55;;;;;;;-144.73;100.00;54383.06;5010004;28;20042;-76
2023/06/27 08:42:32;;;;;;;12.30;3.92;;;;;;;-144.73;100.00;54391.28;5010030;28;20037;-76
2023/06/27 08:44:58;;;;;;;32.65;4.10;;;;;;;-144.73;100.00;54407.69;5010189;28;20034;-74
2023/06/27 08:47:29;;;;;;;16.08;3.58;;;;;;;-144.73;100.00;54432.31;5005457;28;20053;-71
2023/06/27 08:50:03;;;;;;;12.98;3.75;;;;;;;-144.73;100.00;54385.13;5007895;28;20067;-73
2023/06/27 08:52:31;;;;;;;10.98;2.85;;;;;;;-144.73;100.00;54436.44;5003573;28;20042;-74
2023/06/27 08:54:57;;;;;;;12.18;4.18;;;;;;;-144.73;100.00;54411.81;5011929;28;20034;-76
2023/06/27 08:57:33;;;;;;;13.73;3.28;;;;;;;-144.73;100.00;54436.44;5010315;28;20479;-75
2023/06/27 09:00:09;;;;;;;14.45;3.65;;;;;;;-144.73;100.00;54362.53;5009135;28;20038;-76
2023/06/27 09:02:35;;;;;;;16.73;3.47;;;;;;;-144.73;100.00;54428.22;5025768;28;20045;-77
2023/06/27 09:05:02;;;;;;;10.05;2.80;;;;;;;-144.73;100.00;54407.69;5009079;28;20121;-75
2023/06/27 09:07:27;;;;;;;13.50;3.33;;;;;;;-144.73;100.00;54434.38;5027316;28;20105;-75
2023/06/27 09:09:55;;;;;;;15.00;3.42;;;;;;;-144.73;100.00;54391.28;5009058;28;20133;-74
2023/06/27 09:12:21;;;;;;;10.55;2.22;;;;;;;-144.73;100.00;54436.44;5006465;28;20034;-77
2023/06/27 09:14:47;;;;;;;13.05;2.00;;;;;;;-144.73;100.00;54417.97;5014288;28;20025;-77
2023/06/27 09:17:13;;;;;;;12.18;2.42;;;;;;;-144.73;100.00;54434.38;5016392;28;20076;-76
2023/06/27 09:19:38;;;;;;;15.88;2.85;;;;;;;-144.73;100.00;54424.13;5004618;28;20041;-74
2023/06/27 09:22:05;;;;;;;12.40;3.45;;;;;;;-144.73;100.00;54420.00;5008340;28;20025;-74
2023/06/27 09:24:31;;;;;;;10.43;2.63;;;;;;;-144.73;100.00;54362.53;5008943;28;20033;-73
2023/06/27 09:26:56;;;;;;;12.27;2.63;;;;;;;-144.73;100.00;54342.03;5008670;28;20022;-73
2023/06/27 09:29:30;;;;;;;13.13;2.60;;;;;;;-144.73;100.00;54399.50;5007821;28;20037;-73
2023/06/27 09:32:06;;;;;;;8.52;2.28;;;;;;;-144.73;100.00;54383.06;5008049;28;20026;-73
2023/06/27 09:34:32;;;;;;;10.40;2.65;;;;;;;-144.73;100.00;54387.19;5008294;28;20056;-72
2023/06/27 09:37:01;;;;;;;33.33;3.10;;;;;;;-144.73;100.00;54391.28;5008585;28;20026;-73
2023/06/27 09:39:26;;;;;;;11.90;1.83;;;;;;;-144.73;100.00;54424.13;5007972;28;20029;-72
2023/06/27 09:41:52;;;;;;;5.40;1.58;;;;;;;-144.73;100.00;54350.22;5007872;28;20025;-72
2023/06/27 09:44:19;;;;;;;13.30;2.28;;;;;;;-144.73;100.00;54387.19;5007657;28;20230;-72
2023/06/27 09:46:48;;;;;;;13.15;1.80;;;;;;;-144.73;100.00;54346.13;5013364;28;20017;-72
2023/06/27 09:49:16;;;;;;;12.48;2.50;;;;;;;-144.73;100.00;54387.19;5006114;28;20038;-73
2023/06/27 09:51:46;;;;;;;8.27;1.90;;;;;;;-144.73;100.00;54378.97;5008936;28;20033;-72
2023/06/27 09:54:17;;;;;;;8.70;2.42;;;;;;;-144.73;100.00;54366.66;5008265;28;20436;-72
2023/06/27 09:56:42;;;;;;;7.00;1.95;;;;;;;-144.73;100.00;54362.53;5007912;28;20121;-72
2023/06/27 09:59:09;;;;;;;13.48;2.20;;;;;;;-144.73;100.00;54350.22;5008382;28;20072;-72
2023/06/27 10:01:40;;;;;;;16.98;1.92;;;;;;;-144.73;100.00;54407.69;5007414;28;20034;-72
2023/06/27 10:04:06;;;;;;;9.98;1.88;;;;;;;-144.73;100.00;54407.69;5008253;28;20029;-72
2023/06/27 10:06:33;;;;;;;12.68;2.15;;;;;;;-144.73;100.00;54317.38;5007814;28;20034;-72
2023/06/27 10:08:59;;;;;;;11.75;1.88;;;;;;;-144.73;100.00;54354.34;5008843;28;20045;-76
2023/06/27 10:11:26;;;;;;;8.50;1.73;;;;;;;-144.73;100.00;54350.22;5009545;28;20108;-76
2023/06/27 10:13:52;;;;;;;8.07;1.40;;;;;;;-144.73;100.00;54374.84;5010030;28;20362;-76
2023/06/27 10:16:18;;;;;;;16.17;1.60;;;;;;;-144.73;100.00;54370.75;5007673;28;20110;-77
2023/06/27 10:18:44;;;;;;;10.25;2.47;;;;;;;-144.73;97.79;54360.50;5006005;28;20029;-77
2023/06/27 10:21:13;;;;;;;9.93;1.58;;;;;;;-144.73;96.28;54350.22;5006904;28;20034;-76
2023/06/27 10:23:41;;;;;;;8.60;1.42;;;;;;;-144.73;93.12;54327.66;5024868;28;20100;-77
2023/06/27 10:26:09;;;;;;;10.98;2.20;;;;;;;-144.73;92.31;54370.75;5006895;28;20057;-76
2023/06/27 10:28:35;;;;;;;13.20;1.80;;;;;;;-144.73;84.90;54333.81;5007597;28;20058;-77
2023/06/27 10:31:04;;;;;;;9.02;1.60;;;;;;;-144.73;86.88;54356.38;5008330;28;20038;-77
2023/06/27 10:33:31;;;;;;;10.13;1.60;;;;;;;-144.73;78.82;54393.34;5009406;28;20032;-77
2023/06/27 10:36:05;;;;;;;6.45;1.73;;;;;;;-144.73;85.17;54407.69;5011190;28;20038;-76
2023/06/27 10:38:38;;;;;;;9.02;1.88;;;;;;;-144.73;88.77;54337.91;5006573;28;20034;-78
2023/06/27 10:41:06;;;;;;;10.15;1.90;;;;;;;-144.73;84.55;54411.81;5012156;28;20038;-76
2023/06/27 10:43:36;;;;;;;7.60;1.77;;;;;;;-144.73;83.97;54378.97;5011507;28;20025;-76
2023/06/27 10:46:10;;;;;;;8.02;1.60;;;;;;;-144.73;79.36;54342.03;5011392;28;20033;-76
2023/06/27 10:48:49;;;;;;;8.05;1.55;;;;;;;-144.73;75.80;54329.72;5010493;28;20097;-76
2023/06/27 10:51:16;;;;;;;3.30;1.20;;;;;;;-144.73;72.31;54342.03;5012207;28;20125;-76
2023/06/27 10:53:43;;;;;;;5.40;1.52;;;;;;;-144.73;72.22;54346.13;5009396;28;20022;-76
2023/06/27 10:56:16;;;;;;;7.95;1.65;;;;;;;-144.73;70.46;54300.97;5010586;28;20095;-76
2023/06/27 10:58:44;;;;;;;8.52;1.90;;;;;;;-144.73;73.46;54378.97;5008921;28;20027;-75
2023/06/27 11:01:11;;;;;;;8.13;1.50;;;;;;;-144.73;75.40;54387.19;5008194;28;20030;-74
2023/06/27 11:03:38;;;;;;;6.45;1.58;;;;;;;-144.73;75.25;54311.22;5011758;28;20021;-74